Atlantic Horizon — C6XI2 — position and weather

sailwx.info

Track history (hours):
 
Tides and Currents Weather Stations Pressure Air Temp Water Temp Dewpoint Dewpoint Depression Visibility Wind Speed Wind Dir Waves Ship Positions

Atlantic Horizon

Last reported at 2018-Mar-21 16:13 UTC. Time now 2018-Apr-21 21:22 UTC.
Position S 30°19' E 030°57'.
Warning: this ship's position is 31 days out of date.

Length 224 m; draft 7.1 m.

Type: Cargo ship. MMSI: 310968322.

Date/timePositionNaut miles runAvg speedWind from/ knotsBaromVisibWave heightAir tempDewpointWater temp
2018-Mar-21 16:13S 30°19' E 030°57'312.1
2018-Mar-21 15:59S 30°16' E 030°59'611.7
2018-Mar-21 15:27S 30°11' E 031°02'511.7
2018-Mar-21 15:00S 30°06' E 031°05'611.6
2018-Mar-21 14:30S 30°01' E 031°08'611.0
2018-Mar-21 14:00S 29°56' E 031°08'2 4.8
2018-Mar-21 13:30S 29°53' E 031°08'2 3.5
2018-Mar-21 13:00S 29°54' E 031°06'3 6.7
2018-Mar-21 12:30S 29°58' E 031°06'1 2.1
2018-Mar-21 12:00S 29°57' E 031°07'1 2.5
2018-Mar-21 11:30S 29°55' E 031°07'2 3.2
2018-Mar-21 11:00S 29°54' E 031°08'4 7.5
2018-Mar-21 10:29S 29°51' E 031°11'510.5
2018-Mar-21 10:00S 29°49' E 031°16'510.0
2018-Mar-21 09:30S 29°46' E 031°21'612.1
2018-Mar-21 09:00S 29°42' E 031°26'612.7
2018-Mar-21 08:30S 29°38' E 031°32'612.6
2018-Mar-21 08:00S 29°34' E 031°37'713.4
2018-Mar-21 07:30S 29°30' E 031°43'714.5
2018-Mar-21 07:00S 29°25' E 031°50'816.2
2018-Mar-21 06:30S 29°20' E 031°57'916.6
2018-Mar-21 05:59S 29°15' E 032°05'816.6
2018-Mar-21 05:30S 29°10' E 032°12'816.3
2018-Mar-21 05:00S 29°04' E 032°19'816.2
2018-Mar-21 04:30S 28°59' E 032°26'1016.4
2018-Mar-21 03:53S 28°50' E 032°32'  
Track history (hours):
 
Tides and Currents Weather Stations Pressure Air Temp Water Temp Dewpoint Dewpoint Depression Visibility Wind Speed Wind Dir Waves Ship Positions

Atlantic Horizon

Last reported at 2018-Mar-21 16:13 UTC. Time now 2018-Apr-21 21:22 UTC.
Position S 30°19' E 030°57'.
Warning: this ship's position is 31 days out of date.

Length 224 m; draft 7.1 m.

Type: Cargo ship. MMSI: 310968322.

Date/timePositionNaut miles runAvg speedWind from/ knotsBaromVisibWave heightAir tempDewpointWater temp
2018-Mar-21 16:13S 30°19' E 030°57'312.1
2018-Mar-21 15:59S 30°16' E 030°59'611.7
2018-Mar-21 15:27S 30°11' E 031°02'511.7
2018-Mar-21 15:00S 30°06' E 031°05'611.6
2018-Mar-21 14:30S 30°01' E 031°08'611.0
2018-Mar-21 14:00S 29°56' E 031°08'2 4.8
2018-Mar-21 13:30S 29°53' E 031°08'2 3.5
2018-Mar-21 13:00S 29°54' E 031°06'3 6.7
2018-Mar-21 12:30S 29°58' E 031°06'1 2.1
2018-Mar-21 12:00S 29°57' E 031°07'1 2.5
2018-Mar-21 11:30S 29°55' E 031°07'2 3.2
2018-Mar-21 11:00S 29°54' E 031°08'4 7.5
2018-Mar-21 10:29S 29°51' E 031°11'510.5
2018-Mar-21 10:00S 29°49' E 031°16'510.0
2018-Mar-21 09:30S 29°46' E 031°21'612.1
2018-Mar-21 09:00S 29°42' E 031°26'612.7
2018-Mar-21 08:30S 29°38' E 031°32'612.6
2018-Mar-21 08:00S 29°34' E 031°37'713.4
2018-Mar-21 07:30S 29°30' E 031°43'714.5
2018-Mar-21 07:00S 29°25' E 031°50'816.2
2018-Mar-21 06:30S 29°20' E 031°57'916.6
2018-Mar-21 05:59S 29°15' E 032°05'816.6
2018-Mar-21 05:30S 29°10' E 032°12'816.3
2018-Mar-21 05:00S 29°04' E 032°19'816.2
2018-Mar-21 04:30S 28°59' E 032°26'1016.4
2018-Mar-21 03:53S 28°50' E 032°32'  

Dump ship's entire track history